Captain Cook, HI (96704)

11:41 PM HST on August 23, 2016 (GMT -1000)
Halemalu | | Change Station
Active Advisory: Flash Flood Watch Active Notice: Record Report

Elev 1656 ft 19.50 °N, 155.91 °W | Updated 8 seconds ago

Clear
Clear
70.9 °F
Feels Like 70.9 °F
N
0.0
Wind Variable Wind from NW
Gusts 0.0 mph

Today
High -- | Low -- °F
--% Chance of Precip.
Yesterday
High -- | Low -- °F
Precip. -- in
Pressure 29.94 in
Visibility 10.0 miles
Clouds Clear
Dew Point 68 °F
Humidity 90%
Rainfall in
Snow Depth Not available.
6:06 AM 6:45 PM
Waning Gibbous, 59% visible
METAR PHKO 240853Z AUTO 06004KT 10SM CLR 28/22 A2994 RMK AO2 SLP138 T02780222 51011 TSNO
Pressure 29.94 in
Visibility 10.0 miles
Clouds Clear
Dew Point 68 °F
Humidity 90%
Rainfall in
Snow Depth Not available.
6:06 AM 6:45 PM
Waning Gibbous, 59% visible
METAR PHKO 240853Z AUTO 06004KT 10SM CLR 28/22 A2994 RMK AO2 SLP138 T02780222 51011 TSNO

10-Day Weather Forecast

Almanac

Astronomy

Aug. 23, 2016 Rise Set
Actual Time
Civil Twilight
Nautical Twilight
Astronomical Twilight
Moon
Length of Visible Light
Length of Day
Tomorrow will be .
, % of the Moon is Illuminated

Today's Extremes

State Highs State Lows

Community

WunderPhotos

Upload Photos

1,934,560 photos uploaded!

WunderBlog® & News

Nearby

Air Quality

  Air Quality AQ Index Pollutant
Not available.

Snow Depth

Station Depth Elevation

Earthquake Activity

City Distance Mag. Time & Date
Minimum magnitude displayed is 2.5.

Coastal Water Temperatures

Place Temperature

Stations

Nearby Weather Stations

Station Location Temp. Windchill Dew Point Humidity Wind Precip. Elev Updated Type
                   

Watches & Warnings

Flash Flood Watch
Issued: 3:52 PM HST Aug. 23, 2016 – National Weather Service

... Flash Flood Watch remains in effect until midnight HST
tonight...

The Flash Flood Watch continues for

* The Big Island.

* Until midnight HST tonight

* deep tropical moisture will continue to produce heavy downpours
and a chance of thunderstorms over The Big Island into tonight.
With the ground already saturated in many areas from heavy rains
during the past couple of days... there will be an elevated risk
for flash flooding. The greatest flood threat for leeward areas
will be during the afternoon and early evening hours. The threat
for flooding will persist longer over windward areas... possibly
requiring the watch to be extended through the night.


Precautionary/preparedness actions...

A Flash Flood Watch means that conditions may develop that lead
to flash flooding. Flash flooding is very dangerous.

You should monitor later forecasts and be prepared to take action
should flash flood warnings be issued.


Wroe